Time;durP1;ratioP1;P1;durP2;ratioP2;P2;SDS_P1;SDS_P2;PMS_P1;PMS_P2;Temp;Humidity;BMP_temperature;BMP_pressure;BME280_temperature;BME280_humidity;BME280_pressure;Samples;Min_cycle;Max_cycle;Signal;HPM_P1;HPM_P2
2023/06/10 00:02:20;;;;;;;13.70;12.03;;;;;;;17.91;100.00;92476.69;4993323;28;20211;-76
2023/06/10 00:04:46;;;;;;;12.40;11.33;;;;;;;17.92;100.00;92478.22;5008728;28;20266;-76
2023/06/10 00:07:11;;;;;;;12.60;11.70;;;;;;;17.92;100.00;92478.22;4993863;28;20183;-76
2023/06/10 00:09:38;;;;;;;11.87;11.07;;;;;;;17.84;100.00;92484.38;5009504;28;20796;-76
2023/06/10 00:12:07;;;;;;;12.80;11.73;;;;;;;17.70;100.00;92479.34;5012963;28;20222;-76
2023/06/10 00:14:33;;;;;;;13.03;11.83;;;;;;;17.73;100.00;92478.69;5010275;28;20231;-76
2023/06/10 00:16:59;;;;;;;12.70;11.53;;;;;;;17.56;100.00;92471.72;4993042;28;20188;-76
2023/06/10 00:19:29;;;;;;;13.00;11.93;;;;;;;17.30;100.00;92475.63;5008459;28;20270;-76
2023/06/10 00:21:56;;;;;;;12.90;11.80;;;;;;;17.55;100.00;92485.25;5009758;28;20230;-76
2023/06/10 00:24:21;;;;;;;13.73;12.73;;;;;;;17.45;100.00;92485.63;5012171;28;20897;-76
2023/06/10 00:26:47;;;;;;;14.30;13.10;;;;;;;17.40;100.00;92478.66;5018826;28;20209;-76
2023/06/10 00:29:14;;;;;;;14.33;13.03;;;;;;;17.14;100.00;92475.44;5023495;28;20227;-76
2023/06/10 00:31:39;;;;;;;14.77;13.57;;;;;;;17.42;100.00;92486.25;5019315;28;20183;-76
2023/06/10 00:34:05;;;;;;;13.53;12.17;;;;;;;17.47;100.00;92455.19;5013872;28;20191;-76
2023/06/10 00:36:30;;;;;;;14.43;12.77;;;;;;;17.62;100.00;92490.00;5021881;28;20183;-76
2023/06/10 00:38:56;;;;;;;15.07;13.53;;;;;;;17.55;100.00;92493.16;5013438;28;20200;-76
2023/06/10 00:41:22;;;;;;;15.47;14.17;;;;;;;17.41;100.00;92479.44;5013472;28;20244;-76
2023/06/10 00:43:48;;;;;;;14.33;13.13;;;;;;;17.57;100.00;92473.25;5014254;28;20191;-76
2023/06/10 00:46:13;;;;;;;16.17;14.53;;;;;;;17.69;100.00;92487.59;5013303;28;20239;-76
2023/06/10 00:48:40;;;;;;;14.77;13.47;;;;;;;17.61;100.00;92483.94;5014095;28;20202;-76
2023/06/10 00:51:06;;;;;;;16.47;14.97;;;;;;;17.60;100.00;92472.59;5011712;28;20728;-76
2023/06/10 00:53:32;;;;;;;15.47;13.93;;;;;;;17.66;100.00;92488.25;5014769;28;20232;-76
2023/06/10 00:55:58;;;;;;;18.43;14.33;;;;;;;17.74;100.00;92487.41;5019290;28;20234;-76
2023/06/10 00:58:25;;;;;;;15.20;13.80;;;;;;;17.83;100.00;92490.72;5013293;28;20187;-76
2023/06/10 01:00:51;;;;;;;16.70;14.60;;;;;;;17.57;100.00;92488.34;5014129;28;20228;-76
2023/06/10 01:03:18;;;;;;;16.97;15.27;;;;;;;17.58;100.00;92489.88;5012707;28;20180;-76
2023/06/10 01:05:49;;;;;;;17.03;15.40;;;;;;;17.57;100.00;92488.34;5013807;28;20233;-76
2023/06/10 01:08:36;;;;;;;17.80;15.97;;;;;;;17.69;100.00;92490.25;5012644;28;20191;-76
2023/06/10 01:11:07;;;;;;;17.07;15.47;;;;;;;17.75;100.00;92489.72;5017146;28;20269;-76
2023/06/10 01:13:35;;;;;;;17.73;15.93;;;;;;;17.55;100.00;92479.97;5013411;28;20204;-76
2023/06/10 01:16:01;;;;;;;17.10;15.30;;;;;;;17.62;100.00;92479.44;5014020;28;20291;-76
2023/06/10 01:18:32;;;;;;;16.57;15.10;;;;;;;17.62;100.00;92487.38;5012683;28;20203;-77
2023/06/10 01:20:58;;;;;;;17.80;15.93;;;;;;;17.56;100.00;92492.06;5017538;28;20227;-76
2023/06/10 01:23:24;;;;;;;16.63;14.53;;;;;;;17.54;100.00;92481.81;5013472;28;20183;-76
2023/06/10 01:26:11;;;;;;;16.57;13.50;;;;;;;17.68;100.00;92496.63;5016600;28;20258;-76
2023/06/10 01:28:46;;;;;;;15.60;14.30;;;;;;;17.62;100.00;92487.38;5013581;28;20204;-76
2023/06/10 01:31:33;;;;;;;14.70;13.50;;;;;;;17.58;100.00;92495.94;5012261;28;20226;-76
2023/06/10 01:34:00;;;;;;;15.23;13.63;;;;;;;17.74;100.00;92493.47;5012768;28;20180;-76
2023/06/10 01:36:26;;;;;;;14.63;13.27;;;;;;;17.65;100.00;92489.34;5013029;28;20191;-76
2023/06/10 01:38:53;;;;;;;16.43;14.10;;;;;;;17.72;100.00;92494.88;5012419;28;20214;-76
2023/06/10 01:41:21;;;;;;;15.20;13.50;;;;;;;17.67;100.00;92501.13;5023520;28;20231;-76
2023/06/10 01:43:47;;;;;;;15.03;13.63;;;;;;;17.74;100.00;92492.69;5022997;28;20205;-76
2023/06/10 01:46:13;;;;;;;13.97;12.77;;;;;;;17.80;100.00;92488.75;5013677;28;20226;-76
2023/06/10 01:48:42;;;;;;;15.83;14.13;;;;;;;17.85;100.00;92494.63;5012881;28;20184;-77
2023/06/10 01:51:07;;;;;;;14.90;13.70;;;;;;;17.70;100.00;92486.53;5012209;28;20230;-76
2023/06/10 01:53:33;;;;;;;14.70;13.43;;;;;;;17.62;100.00;92484.72;5024288;28;20187;-76
2023/06/10 01:55:58;;;;;;;15.27;13.77;;;;;;;17.68;100.00;92481.56;5014218;28;20270;-76
2023/06/10 01:58:23;;;;;;;15.97;14.37;;;;;;;17.59;100.00;92459.72;5012587;28;20215;-76
2023/06/10 02:00:49;;;;;;;15.33;13.93;;;;;;;17.79;100.00;92487.22;5011403;28;21019;-76
2023/06/10 02:03:14;;;;;;;14.57;13.17;;;;;;;17.78;100.00;92490.94;5024191;28;20790;-76
2023/06/10 02:05:40;;;;;;;14.70;13.30;;;;;;;17.83;100.00;92477.53;5028400;28;20254;-76
2023/06/10 02:08:05;;;;;;;14.67;13.30;;;;;;;17.69;100.00;92469.91;5024094;28;20202;-76
2023/06/10 02:10:31;;;;;;;14.37;13.17;;;;;;;17.57;100.00;92478.53;5006225;28;20258;-76
2023/06/10 02:12:56;;;;;;;15.07;13.67;;;;;;;17.35;100.00;92473.56;5012099;28;20251;-76
2023/06/10 02:15:22;;;;;;;14.10;12.80;;;;;;;17.43;100.00;92482.53;5014802;28;20233;-76
2023/06/10 02:17:48;;;;;;;14.47;13.37;;;;;;;17.47;100.00;92464.97;5022127;28;20187;-76
2023/06/10 02:20:14;;;;;;;14.20;12.93;;;;;;;17.42;100.00;92462.50;4997753;28;20227;-76
2023/06/10 02:22:39;;;;;;;14.00;12.70;;;;;;;17.42;100.00;92478.31;5003673;28;20221;-76
2023/06/10 02:25:05;;;;;;;14.47;13.17;;;;;;;17.38;100.00;92477.44;5012820;28;20669;-76
2023/06/10 02:27:31;;;;;;;14.10;12.77;;;;;;;17.15;100.00;92466.41;4995673;28;20688;-76
2023/06/10 02:29:57;;;;;;;12.83;11.83;;;;;;;17.45;100.00;92464.50;5012913;28;20243;-76
2023/06/10 02:32:22;;;;;;;14.53;13.10;;;;;;;17.43;100.00;92464.81;5013145;28;20259;-76
2023/06/10 02:34:48;;;;;;;15.47;13.90;;;;;;;17.48;100.00;92456.72;5012621;28;20219;-76
2023/06/10 02:37:15;;;;;;;13.60;12.50;;;;;;;17.44;100.00;92450.56;5011655;28;20199;-76
2023/06/10 02:39:41;;;;;;;14.67;13.27;;;;;;;17.48;100.00;92454.09;5017853;28;20222;-76
2023/06/10 02:42:07;;;;;;;14.17;13.07;;;;;;;17.63;100.00;92454.56;5010367;28;20218;-76
2023/06/10 02:44:32;;;;;;;14.13;12.97;;;;;;;17.40;100.00;92457.53;5013143;28;20231;-76
2023/06/10 02:46:57;;;;;;;13.47;12.47;;;;;;;17.44;100.00;92447.13;5011729;28;20207;-75
2023/06/10 02:49:23;;;;;;;14.00;12.70;;;;;;;17.54;100.00;92442.22;4994460;28;20231;-76
2023/06/10 02:51:53;;;;;;;12.53;11.70;;;;;;;17.44;100.00;92436.59;4994017;28;20198;-75
2023/06/10 02:54:19;;;;;;;13.13;11.93;;;;;;;17.39;100.00;92442.81;5000252;28;20815;-75
2023/06/10 02:56:45;;;;;;;12.90;11.97;;;;;;;17.12;100.00;92439.94;5010876;28;20225;-76
2023/06/10 02:59:11;;;;;;;11.77;10.97;;;;;;;17.27;100.00;92452.53;5013277;28;20195;-76
2023/06/10 03:01:37;;;;;;;12.27;11.47;;;;;;;17.23;100.00;92446.38;5012632;28;20215;-77
2023/06/10 03:04:04;;;;;;;11.80;10.63;;;;;;;17.18;100.00;92428.09;5011941;28;20208;-76
2023/06/10 03:06:30;;;;;;;13.10;12.03;;;;;;;17.27;100.00;92441.97;5011340;28;20203;-76
2023/06/10 03:08:55;;;;;;;12.00;11.10;;;;;;;17.50;100.00;92445.84;5015936;28;20195;-76
2023/06/10 03:11:20;;;;;;;11.57;10.60;;;;;;;17.48;100.00;92450.66;5018881;28;20291;-76
2023/06/10 03:13:46;;;;;;;11.60;10.80;;;;;;;17.39;100.00;92449.94;5010178;28;20199;-76
2023/06/10 03:16:12;;;;;;;12.60;11.40;;;;;;;17.29;100.00;92451.09;5010132;28;20242;-76
2023/06/10 03:18:37;;;;;;;11.13;10.33;;;;;;;17.43;100.00;92450.84;5011228;28;20192;-76
2023/06/10 03:21:03;;;;;;;11.27;10.57;;;;;;;17.42;100.00;92438.72;5010611;28;20738;-76
2023/06/10 03:23:28;;;;;;;11.50;10.60;;;;;;;17.51;100.00;92437.59;5011065;28;20247;-76
2023/06/10 03:25:54;;;;;;;11.77;10.93;;;;;;;17.56;100.00;92444.53;5010318;28;20234;-76
2023/06/10 03:28:21;;;;;;;11.10;10.23;;;;;;;17.63;100.00;92456.13;5011072;28;20180;-76
2023/06/10 03:30:47;;;;;;;12.40;11.50;;;;;;;17.44;100.00;92462.97;5008792;28;20269;-76
2023/06/10 03:33:13;;;;;;;11.93;11.03;;;;;;;17.67;100.00;92471.31;5008842;28;20214;-76
2023/06/10 03:35:39;;;;;;;11.73;10.90;;;;;;;17.57;100.00;92462.69;5010096;28;20258;-77
2023/06/10 03:38:06;;;;;;;12.53;11.47;;;;;;;17.75;100.00;92470.47;5014215;28;20183;-76
2023/06/10 03:40:31;;;;;;;11.10;10.30;;;;;;;17.74;100.00;92467.06;5008677;28;20303;-77
2023/06/10 03:42:57;;;;;;;12.47;11.43;;;;;;;17.43;100.00;92472.72;5011704;28;20819;-76
2023/06/10 03:45:24;;;;;;;12.43;11.43;;;;;;;17.35;100.00;92486.75;4991960;28;20239;-76
2023/06/10 03:47:50;;;;;;;13.63;12.43;;;;;;;17.04;100.00;92470.53;5006139;28;20195;-76
2023/06/10 03:50:15;;;;;;;12.93;11.73;;;;;;;17.52;100.00;92488.53;4984265;28;20223;-76
2023/06/10 03:52:41;;;;;;;14.90;13.50;;;;;;;17.63;100.00;92485.16;5012748;28;20221;-77
2023/06/10 03:55:07;;;;;;;13.90;12.73;;;;;;;17.59;100.00;92471.06;5009943;28;20239;-77
2023/06/10 03:57:32;;;;;;;14.17;13.07;;;;;;;17.72;100.00;92479.03;5011001;28;20215;-76
2023/06/10 03:59:58;;;;;;;13.80;12.60;;;;;;;17.52;100.00;92452.34;5008255;28;20242;-76
2023/06/10 04:02:23;;;;;;;14.30;12.50;;;;;;;17.94;100.00;92478.66;5010882;28;20215;-77
2023/06/10 04:04:50;;;;;;;13.77;12.57;;;;;;;17.95;100.00;92477.56;5025692;28;20241;-77
2023/06/10 04:07:18;;;;;;;13.53;12.10;;;;;;;18.00;100.00;92472.06;5026938;28;20210;-76
2023/06/10 04:09:44;;;;;;;14.50;13.30;;;;;;;18.00;100.00;92472.06;5026660;28;20226;-76
2023/06/10 04:12:10;;;;;;;13.20;12.20;;;;;;;17.94;100.00;92465.47;5008801;28;20238;-76
2023/06/10 04:14:37;;;;;;;13.50;12.37;;;;;;;17.88;100.00;92461.47;5002450;28;20220;-76
2023/06/10 04:17:06;;;;;;;14.07;12.70;;;;;;;18.05;100.00;92477.16;5007796;28;20188;-75
2023/06/10 04:19:32;;;;;;;14.27;12.97;;;;;;;18.11;100.00;92483.78;5009828;28;20262;-71
2023/06/10 04:21:57;;;;;;;12.73;11.63;;;;;;;18.07;100.00;92481.00;5014431;28;20207;-68
2023/06/10 04:24:23;;;;;;;13.73;12.63;;;;;;;17.82;100.00;92481.28;5009710;28;20265;-68
2023/06/10 04:26:48;;;;;;;15.10;13.83;;;;;;;17.76;100.00;92479.94;5010888;28;20733;-70
2023/06/10 04:29:14;;;;;;;16.50;15.10;;;;;;;18.11;100.00;92489.06;4987520;28;20263;-69
2023/06/10 04:31:39;;;;;;;14.23;12.77;;;;;;;18.11;100.00;92486.41;5016247;28;20222;-70
2023/06/10 04:34:04;;;;;;;13.27;12.17;;;;;;;18.16;100.00;92478.28;5012346;28;20188;-69
2023/06/10 04:36:30;;;;;;;14.93;13.63;;;;;;;18.37;100.00;92494.81;5005383;28;20203;-70
2023/06/10 04:38:55;;;;;;;15.07;13.60;;;;;;;18.42;100.00;92486.72;5008837;28;20267;-71
2023/06/10 04:41:22;;;;;;;15.53;14.13;;;;;;;18.23;100.00;92452.06;4990745;28;20259;-71
2023/06/10 04:43:47;;;;;;;15.40;13.93;;;;;;;18.56;100.00;92489.81;5008020;28;20287;-69
2023/06/10 04:46:13;;;;;;;14.93;13.53;;;;;;;18.62;100.00;92485.84;5007915;28;20224;-72
2023/06/10 04:48:39;;;;;;;15.50;14.30;;;;;;;18.74;100.00;92483.97;5017015;28;20188;-74
2023/06/10 04:51:05;;;;;;;17.13;15.53;;;;;;;18.88;100.00;92484.41;5007433;28;20224;-68
2023/06/10 04:53:31;;;;;;;18.87;17.17;;;;;;;19.16;100.00;92489.78;5005556;28;20259;-71
2023/06/10 04:55:57;;;;;;;19.23;17.47;;;;;;;19.28;100.00;92489.81;5007698;28;20221;-70
2023/06/10 04:58:23;;;;;;;18.47;16.60;;;;;;;19.38;100.00;92476.09;5007650;28;20218;-69
2023/06/10 05:00:48;;;;;;;19.67;16.87;;;;;;;19.37;100.00;92484.38;5007380;28;20234;-67
2023/06/10 05:03:13;;;;;;;15.50;14.07;;;;;;;19.35;100.00;92479.41;5008380;28;20221;-70
2023/06/10 05:05:39;;;;;;;17.80;16.10;;;;;;;19.36;100.00;92480.19;5003585;28;20217;-69
2023/06/10 05:08:04;;;;;;;17.53;15.83;;;;;;;19.09;100.00;92471.06;5006606;28;20348;-68
2023/06/10 05:10:31;;;;;;;17.47;15.87;;;;;;;19.14;100.00;92486.72;5005095;28;20246;-72
2023/06/10 05:12:57;;;;;;;16.90;15.40;;;;;;;19.12;100.00;92484.41;4995146;28;20232;-70
2023/06/10 05:15:23;;;;;;;18.03;16.23;;;;;;;19.08;100.00;92480.13;5011575;28;20240;-74
2023/06/10 05:17:48;;;;;;;19.27;17.20;;;;;;;19.11;100.00;92485.50;5012282;28;20180;-70
2023/06/10 05:20:15;;;;;;;22.13;18.07;;;;;;;19.00;100.00;92473.06;5011746;28;20228;-70
2023/06/10 05:22:40;;;;;;;21.60;18.97;;;;;;;18.96;100.00;92470.31;5011667;28;20271;-74
2023/06/10 05:25:06;;;;;;;20.50;18.50;;;;;;;19.15;100.00;92488.25;5014768;28;20224;-82
2023/06/10 05:27:32;;;;;;;20.00;18.07;;;;;;;19.19;100.00;92479.31;5014193;28;20188;-81
2023/06/10 05:29:57;;;;;;;19.17;17.30;;;;;;;18.74;100.00;92462.81;5013328;28;20345;-81
2023/06/10 05:32:22;;;;;;;18.67;16.93;;;;;;;18.70;100.00;92483.13;5013778;28;20176;-81
2023/06/10 05:34:48;;;;;;;18.23;16.53;;;;;;;19.06;100.00;92474.38;5004275;28;20231;-80
2023/06/10 05:37:14;;;;;;;19.03;17.23;;;;;;;19.21;100.00;92481.63;5014874;28;20730;-80
2023/06/10 05:39:39;;;;;;;19.40;17.47;;;;;;;19.34;100.00;92485.81;5013944;28;20369;-80
2023/06/10 05:42:07;;;;;;;20.17;18.13;;;;;;;19.29;100.00;92482.63;5020623;28;20216;-80
2023/06/10 05:44:33;;;;;;;19.93;18.00;;;;;;;19.40;100.00;92487.13;5017716;28;20270;-80
2023/06/10 05:46:58;;;;;;;19.13;17.17;;;;;;;19.43;100.00;92488.31;5018468;28;20253;-80
2023/06/10 05:49:24;;;;;;;21.83;19.37;;;;;;;19.67;100.00;92489.03;5011008;28;20290;-80
2023/06/10 05:51:49;;;;;;;21.57;19.30;;;;;;;19.39;100.00;92501.50;5011952;28;20223;-80
2023/06/10 05:54:15;;;;;;;20.97;18.80;;;;;;;19.97;100.00;92492.88;5011005;28;20281;-79
2023/06/10 05:56:40;;;;;;;21.47;19.37;;;;;;;20.04;100.00;92479.84;5012562;28;20290;-79
2023/06/10 05:59:06;;;;;;;20.47;18.37;;;;;;;20.40;100.00;92508.06;5011846;28;20182;-80
2023/06/10 06:01:31;;;;;;;18.83;17.07;;;;;;;20.37;100.00;92514.03;5005057;28;20277;-80
2023/06/10 06:03:56;;;;;;;17.80;16.10;;;;;;;20.52;98.47;92513.28;5011220;28;20194;-80
2023/06/10 06:06:23;;;;;;;17.20;15.50;;;;;;;20.53;97.81;92515.59;5010560;28;20190;-80
2023/06/10 06:08:48;;;;;;;16.83;15.23;;;;;;;20.46;96.81;92502.16;5017249;28;20189;-80
2023/06/10 06:11:13;;;;;;;17.53;15.93;;;;;;;20.46;97.87;92509.34;5022106;28;20234;-81
2023/06/10 06:13:39;;;;;;;17.03;15.43;;;;;;;20.60;97.47;92513.13;5012362;28;20251;-79
2023/06/10 06:16:04;;;;;;;16.57;15.17;;;;;;;20.65;96.07;92515.50;5014492;28;20225;-79
2023/06/10 06:18:30;;;;;;;16.90;15.10;;;;;;;20.49;96.79;92498.81;5013661;28;20171;-79
2023/06/10 06:20:55;;;;;;;16.70;15.00;;;;;;;20.28;99.05;92516.84;5016365;28;20243;-80
2023/06/10 06:23:20;;;;;;;17.93;14.37;;;;;;;20.21;98.75;92487.50;5012202;28;20200;-79
2023/06/10 06:25:46;;;;;;;17.43;15.83;;;;;;;20.26;98.71;92475.88;5013122;28;20230;-79
2023/06/10 06:28:11;;;;;;;18.40;16.60;;;;;;;20.50;97.62;92505.66;5012775;28;20206;-79
2023/06/10 06:30:36;;;;;;;17.03;15.47;;;;;;;20.34;97.60;92512.06;5011733;28;20226;-79
2023/06/10 06:33:02;;;;;;;16.83;15.43;;;;;;;19.72;100.00;92475.53;5014229;28;20190;-79
2023/06/10 06:35:30;;;;;;;15.50;14.10;;;;;;;20.32;99.10;92501.81;5016627;28;20225;-79
2023/06/10 06:37:55;;;;;;;18.60;16.80;;;;;;;20.38;98.35;92495.13;5015204;28;20187;-79
2023/06/10 06:40:20;;;;;;;17.30;15.43;;;;;;;20.41;97.17;92478.53;5012169;28;20217;-79
2023/06/10 06:42:46;;;;;;;19.40;17.33;;;;;;;20.68;94.95;92498.88;5015086;28;20759;-79
2023/06/10 06:45:11;;;;;;;16.20;14.70;;;;;;;20.44;99.00;92514.97;5011757;28;20230;-79
2023/06/10 06:47:37;;;;;;;16.77;15.20;;;;;;;20.15;99.99;92496.81;5011629;28;20179;-79
2023/06/10 06:50:02;;;;;;;15.90;14.43;;;;;;;20.11;97.26;92493.25;5003740;28;20747;-79
2023/06/10 06:52:28;;;;;;;16.23;14.77;;;;;;;20.48;96.37;92496.50;5007429;28;20257;-79
2023/06/10 06:54:53;;;;;;;16.83;15.17;;;;;;;20.54;96.89;92485.31;5010847;28;20221;-79
2023/06/10 06:57:19;;;;;;;17.90;16.20;;;;;;;20.78;92.97;92500.25;5011786;28;20217;-79
2023/06/10 06:59:44;;;;;;;17.37;15.70;;;;;;;20.73;93.50;92482.72;5019429;28;20225;-80
2023/06/10 07:02:10;;;;;;;17.33;15.52;;;;;;;21.26;91.33;92494.56;5027553;28;20263;-80
2023/06/10 07:04:36;;;;;;;17.88;15.85;;;;;;;21.69;91.70;92496.25;5019084;28;20322;-80
2023/06/10 07:07:02;;;;;;;17.98;14.57;;;;;;;21.47;90.88;92504.91;5009622;28;20183;-80
2023/06/10 07:09:28;;;;;;;17.65;14.15;;;;;;;21.80;88.40;92499.94;5020867;28;20233;-79
2023/06/10 07:11:53;;;;;;;16.30;14.63;;;;;;;22.49;83.46;92493.63;5010985;28;20253;-80
2023/06/10 07:14:18;;;;;;;14.02;12.63;;;;;;;22.63;83.91;92491.22;5010687;28;20228;-79
2023/06/10 07:16:45;;;;;;;14.00;12.55;;;;;;;23.19;79.88;92502.78;5000471;28;20196;-79
2023/06/10 07:19:11;;;;;;;14.20;12.75;;;;;;;23.03;81.18;92505.59;5013552;28;20211;-80
2023/06/10 07:21:37;;;;;;;13.93;12.65;;;;;;;23.29;79.40;92496.84;5007160;28;20209;-80
2023/06/10 07:24:03;;;;;;;13.45;12.35;;;;;;;22.70;81.82;92502.75;5010886;28;20193;-77
2023/06/10 07:26:28;;;;;;;13.93;12.63;;;;;;;22.21;82.52;92496.56;5012355;28;20175;-77
2023/06/10 07:28:54;;;;;;;14.38;13.05;;;;;;;22.81;79.77;92509.03;5012275;28;20228;-77
2023/06/10 07:31:19;;;;;;;14.35;12.95;;;;;;;23.64;77.18;92500.03;5000120;28;20226;-77
2023/06/10 07:33:46;;;;;;;13.43;11.98;;;;;;;23.73;73.96;92495.97;5015131;28;20211;-77
2023/06/10 07:36:12;;;;;;;16.65;13.50;;;;;;;24.22;72.83;92487.03;5005513;28;20987;-77
2023/06/10 07:38:37;;;;;;;14.82;12.77;;;;;;;23.36;78.98;92497.72;5011419;28;20181;-77
2023/06/10 07:41:03;;;;;;;13.82;12.60;;;;;;;23.41;77.14;92500.06;5010150;28;20233;-77
2023/06/10 07:43:28;;;;;;;12.90;11.68;;;;;;;23.83;75.95;92499.13;5020368;28;20214;-76
2023/06/10 07:45:53;;;;;;;12.68;11.50;;;;;;;23.78;75.31;92502.88;5010084;28;20234;-77
2023/06/10 07:48:19;;;;;;;13.18;12.05;;;;;;;24.09;72.18;92502.50;5015010;28;20334;-78
2023/06/10 07:50:44;;;;;;;13.27;12.10;;;;;;;23.17;74.84;92460.53;5010254;28;20232;-77
2023/06/10 07:53:10;;;;;;;14.98;11.15;;;;;;;24.71;71.47;92512.34;5012158;28;20212;-76
2023/06/10 07:55:35;;;;;;;13.38;11.40;;;;;;;24.57;69.38;92506.84;5024503;28;20286;-78
2023/06/10 07:58:00;;;;;;;12.90;11.38;;;;;;;24.56;73.46;92509.88;5010951;28;20254;-77
2023/06/10 08:00:26;;;;;;;11.70;10.70;;;;;;;24.48;69.79;92506.38;5009779;28;20250;-77
2023/06/10 08:02:51;;;;;;;11.85;10.52;;;;;;;24.41;69.95;92502.84;5016575;28;20222;-78
2023/06/10 08:05:17;;;;;;;12.32;11.23;;;;;;;23.29;73.96;92504.84;5012240;28;20230;-77
2023/06/10 08:07:43;;;;;;;11.50;10.60;;;;;;;23.40;73.63;92503.88;5012118;28;20208;-77
2023/06/10 08:10:08;;;;;;;10.77;9.85;;;;;;;23.62;74.24;92508.38;5011985;28;20230;-77
2023/06/10 08:12:34;;;;;;;11.40;10.60;;;;;;;23.60;71.33;92496.53;5011123;28;20223;-77
2023/06/10 08:15:00;;;;;;;12.10;10.93;;;;;;;23.50;73.08;92500.56;5010731;28;20219;-78
2023/06/10 08:17:26;;;;;;;12.45;11.00;;;;;;;24.07;69.99;92498.66;5009611;28;20197;-77
2023/06/10 08:19:51;;;;;;;10.30;9.40;;;;;;;24.06;66.73;92497.91;5009516;28;20230;-77
2023/06/10 08:22:17;;;;;;;10.32;9.57;;;;;;;23.00;67.75;92494.88;5010633;28;20210;-78
2023/06/10 08:24:43;;;;;;;10.68;9.88;;;;;;;23.23;68.56;92501.69;5022323;28;20293;-78
2023/06/10 08:27:08;;;;;;;10.80;9.93;;;;;;;22.81;69.46;92498.38;5003474;28;20176;-79
2023/06/10 08:29:33;;;;;;;11.50;10.60;;;;;;;23.30;69.01;92501.81;5005749;28;20230;-78
2023/06/10 08:31:59;;;;;;;10.65;9.68;;;;;;;23.16;66.30;92498.91;5016278;28;20193;-78
2023/06/10 08:34:24;;;;;;;9.70;9.00;;;;;;;23.07;64.17;92494.97;5004859;28;20265;-78
2023/06/10 08:36:53;;;;;;;10.23;9.30;;;;;;;22.97;66.94;92492.94;5002569;28;20218;-78
2023/06/10 08:39:19;;;;;;;10.07;9.38;;;;;;;22.89;71.86;92486.72;5010575;28;20241;-79
2023/06/10 08:41:57;;;;;;;10.13;9.43;;;;;;;22.33;68.58;92483.09;5006818;28;20209;-79
2023/06/10 08:44:28;;;;;;;8.90;8.40;;;;;;;22.70;67.74;92486.00;5019430;28;20332;-78
2023/06/10 08:46:58;;;;;;;10.75;9.85;;;;;;;22.63;67.58;92491.22;5013011;28;20162;-78
2023/06/10 08:49:25;;;;;;;9.70;9.00;;;;;;;22.48;69.06;92458.25;5003115;28;20221;-78
2023/06/10 08:51:57;;;;;;;9.68;9.07;;;;;;;22.80;68.34;92480.84;5014118;28;20241;-79
2023/06/10 08:54:26;;;;;;;9.10;8.38;;;;;;;22.87;61.33;92459.69;5013524;28;20217;-76
2023/06/10 08:56:55;;;;;;;10.13;9.32;;;;;;;22.87;67.43;92473.00;4981180;28;20176;-78
2023/06/10 08:59:21;;;;;;;9.68;9.10;;;;;;;23.31;66.03;92475.97;5012798;28;20229;-77
2023/06/10 09:01:47;;;;;;;10.10;9.48;;;;;;;23.28;61.95;92469.47;5018044;28;20225;-78
2023/06/10 09:04:13;;;;;;;10.75;9.88;;;;;;;23.43;65.73;92468.53;5013786;28;20186;-79
2023/06/10 09:06:40;;;;;;;10.27;9.30;;;;;;;23.16;64.48;92472.28;5013793;28;20270;-77
2023/06/10 09:09:07;;;;;;;10.07;9.27;;;;;;;23.18;64.39;92464.72;5014206;28;20185;-79
2023/06/10 09:11:33;;;;;;;9.80;8.93;;;;;;;23.03;65.03;92457.66;5014161;28;20230;-79
2023/06/10 09:13:58;;;;;;;9.55;8.85;;;;;;;23.06;65.85;92462.25;5013707;28;20214;-79
2023/06/10 09:16:27;;;;;;;9.75;8.82;;;;;;;23.28;61.19;92464.13;5013642;28;20194;-78
2023/06/10 09:18:55;;;;;;;9.63;8.80;;;;;;;23.42;58.51;92460.88;5013201;28;20812;-79
2023/06/10 09:21:23;;;;;;;9.57;9.00;;;;;;;23.21;64.06;92468.53;5012772;28;20254;-79
2023/06/10 09:23:50;;;;;;;9.60;8.90;;;;;;;22.89;61.50;92468.09;5013179;28;20221;-79
2023/06/10 09:26:15;;;;;;;9.95;9.15;;;;;;;23.69;58.06;92463.13;5013203;28;20212;-78
2023/06/10 09:28:47;;;;;;;9.15;8.55;;;;;;;23.77;59.80;92463.25;5013248;28;20186;-79
2023/06/10 09:31:13;;;;;;;10.35;9.65;;;;;;;23.85;65.51;92448.84;5016596;28;20242;-82
2023/06/10 09:33:39;;;;;;;11.07;10.25;;;;;;;23.72;64.24;92443.75;5008101;28;20234;-79
2023/06/10 09:36:05;;;;;;;10.85;10.05;;;;;;;24.15;57.62;92461.03;5007912;28;20229;-78
2023/06/10 09:38:33;;;;;;;10.85;10.05;;;;;;;23.27;60.32;92459.91;5012667;28;20464;-74
2023/06/10 09:40:58;;;;;;;10.60;9.73;;;;;;;24.02;59.20;92453.63;5012543;28;20224;-79
2023/06/10 09:43:39;;;;;;;10.25;9.55;;;;;;;24.24;59.76;92450.06;5013329;28;20249;-68
2023/06/10 09:46:04;;;;;;;11.57;10.68;;;;;;;23.99;67.01;92438.34;5009077;28;20277;-68
2023/06/10 09:48:29;;;;;;;9.68;8.98;;;;;;;24.37;59.30;92454.78;5012896;28;20249;-68
2023/06/10 09:50:55;;;;;;;10.02;9.05;;;;;;;24.11;60.10;92451.47;5012578;28;20273;-68
2023/06/10 09:53:20;;;;;;;10.05;9.35;;;;;;;24.08;59.07;92442.28;5013103;28;20195;-68
2023/06/10 09:55:46;;;;;;;10.40;9.65;;;;;;;24.19;58.03;92445.81;5012575;28;20243;-71
2023/06/10 09:58:11;;;;;;;10.27;9.38;;;;;;;24.01;60.88;92444.88;5011898;28;20214;-68
2023/06/10 10:00:37;;;;;;;10.15;9.35;;;;;;;24.31;56.85;92444.81;5013886;28;20224;-69
2023/06/10 10:03:03;;;;;;;11.98;10.98;;;;;;;24.45;59.06;92445.69;5009075;28;20217;-68
2023/06/10 10:05:29;;;;;;;10.95;10.13;;;;;;;24.26;55.07;92442.47;5003094;28;20305;-70
2023/06/10 10:07:56;;;;;;;10.30;9.45;;;;;;;24.59;55.33;92445.06;5010097;28;20294;-69
2023/06/10 10:10:22;;;;;;;10.00;9.30;;;;;;;25.01;54.70;92434.75;4992917;28;20241;-71
2023/06/10 10:12:48;;;;;;;9.75;9.05;;;;;;;24.98;53.51;92435.50;5009964;28;20228;-70
2023/06/10 10:15:16;;;;;;;11.35;10.50;;;;;;;25.01;51.28;92424.06;5009213;28;20217;-68
2023/06/10 10:17:52;;;;;;;9.20;8.57;;;;;;;24.43;52.19;92418.63;5008772;28;20198;-69
2023/06/10 10:20:22;;;;;;;10.30;9.52;;;;;;;24.78;50.89;92407.50;5008469;28;20241;-71
2023/06/10 10:22:49;;;;;;;9.27;8.68;;;;;;;24.91;50.78;92417.50;5008471;28;20218;-70
2023/06/10 10:25:23;;;;;;;9.30;8.60;;;;;;;24.13;52.25;92401.16;5009649;28;20252;-74
2023/06/10 10:27:54;;;;;;;10.27;9.50;;;;;;;24.36;54.79;92410.53;5000880;28;20181;-70
2023/06/10 10:30:21;;;;;;;9.85;9.15;;;;;;;24.97;52.44;92423.25;5008674;28;20261;-73
2023/06/10 10:33:33;;;;;;;9.48;8.73;;;;;;;25.30;53.37;92420.41;5010408;28;20197;-69
2023/06/10 10:35:59;;;;;;;10.25;9.30;;;;;;;25.50;49.49;92410.22;4929502;29;20227;-72
2023/06/10 10:38:24;;;;;;;10.15;9.20;;;;;;;25.95;50.85;92407.72;4916109;29;20196;-72
2023/06/10 10:40:51;;;;;;;10.13;9.43;;;;;;;26.03;51.03;92409.31;4968255;28;20295;-73
2023/06/10 10:43:16;;;;;;;9.70;9.02;;;;;;;26.47;49.88;92417.06;5004307;28;20253;-70
2023/06/10 10:45:42;;;;;;;10.63;9.80;;;;;;;26.42;49.94;92409.38;5005480;28;20222;-70
2023/06/10 10:48:12;;;;;;;9.27;8.55;;;;;;;26.25;48.46;92399.41;5009996;28;20199;-70
2023/06/10 10:50:38;;;;;;;8.93;8.23;;;;;;;25.92;50.34;92397.78;5008922;28;20266;-71
2023/06/10 10:53:05;;;;;;;9.45;8.68;;;;;;;25.71;50.30;92397.72;5007542;28;20275;-71
2023/06/10 10:55:31;;;;;;;8.82;8.20;;;;;;;25.52;51.18;92400.69;5009764;28;20232;-71
2023/06/10 10:57:57;;;;;;;9.20;8.60;;;;;;;24.95;51.82;92404.19;5010104;28;20194;-71
2023/06/10 11:00:27;;;;;;;9.43;8.73;;;;;;;25.85;51.23;92395.09;5014000;28;20226;-71
2023/06/10 11:02:53;;;;;;;9.82;9.13;;;;;;;25.97;50.14;92381.38;5010413;28;20250;-72
2023/06/10 11:05:39;;;;;;;9.60;8.98;;;;;;;25.64;52.30;92388.88;5009614;28;20270;-71
2023/06/10 11:08:06;;;;;;;9.98;9.20;;;;;;;25.54;50.92;92392.31;5004953;28;20207;-72
2023/06/10 11:10:36;;;;;;;9.32;8.52;;;;;;;25.35;48.31;92377.31;5009755;28;20331;-71
2023/06/10 11:13:15;;;;;;;10.00;9.00;;;;;;;25.28;48.38;92380.69;5008057;28;20226;-71
2023/06/10 11:15:49;;;;;;;9.30;8.65;;;;;;;25.06;50.49;92348.88;5005400;28;20227;-72